Time;durP1;ratioP1;P1;durP2;ratioP2;P2;SDS_P1;SDS_P2;PMS_P1;PMS_P2;Temp;Humidity;BMP_temperature;BMP_pressure;BME280_temperature;BME280_humidity;BME280_pressure;Samples;Min_cycle;Max_cycle;Signal;HPM_P1;HPM_P2
2023/09/17 00:02:04;;;;;;;4.90;3.92;;;;;17.60;94121.00;;;;7394722;19;20148;-80
2023/09/17 00:04:33;;;;;;;7.00;4.22;;;;;17.50;94124.00;;;;7396912;19;20592;-74
2023/09/17 00:07:09;;;;;;;6.13;3.88;;;;;17.60;94131.00;;;;7397793;19;20547;-78
2023/09/17 00:09:38;;;;;;;4.43;3.80;;;;;17.40;94125.00;;;;7395426;19;20132;-77
2023/09/17 00:12:14;;;;;;;5.20;4.03;;;;;17.40;94122.00;;;;7396947;19;20140;-78
2023/09/17 00:14:42;;;;;;;9.80;4.57;;;;;17.40;94122.00;;;;7396663;19;20128;-77
2023/09/17 00:17:18;;;;;;;5.70;4.85;;;;;17.50;94126.00;;;;7398151;19;20152;-77
2023/09/17 00:19:53;;;;;;;4.32;3.70;;;;;17.60;94123.00;;;;7396122;19;20129;-76
2023/09/17 00:22:21;;;;;;;5.47;4.32;;;;;17.60;94119.00;;;;7393932;19;21126;-76
2023/09/17 00:25:01;;;;;;;5.82;4.05;;;;;17.50;94119.00;;;;7395761;19;20149;-78
2023/09/17 00:27:29;;;;;;;4.72;4.25;;;;;17.40;94116.00;;;;7398625;19;20137;-77
2023/09/17 00:30:04;;;;;;;4.30;3.90;;;;;17.40;94120.00;;;;7397673;19;20144;-71
2023/09/17 00:32:39;;;;;;;4.60;4.20;;;;;17.20;94121.00;;;;7388225;19;20259;-72
2023/09/17 00:35:20;;;;;;;4.28;3.88;;;;;17.10;94112.00;;;;7387523;19;20141;-69
2023/09/17 00:37:48;;;;;;;4.93;4.35;;;;;17.30;94120.00;;;;7397246;19;20488;-70
2023/09/17 00:40:29;;;;;;;4.30;3.88;;;;;17.10;94117.00;;;;7396173;19;20144;-72
2023/09/17 00:43:04;;;;;;;5.07;3.88;;;;;17.10;94114.00;;;;7394567;19;20147;-72
2023/09/17 00:45:40;;;;;;;5.95;4.30;;;;;17.00;94116.00;;;;7397447;19;20148;-73
2023/09/17 00:48:15;;;;;;;4.68;3.95;;;;;17.00;94121.00;;;;7396156;19;20630;-71
2023/09/17 00:50:43;;;;;;;6.05;4.30;;;;;17.10;94120.00;;;;7397782;19;20573;-72
2023/09/17 00:53:18;;;;;;;6.03;4.20;;;;;17.10;94115.00;;;;7397318;19;20144;-71
2023/09/17 00:55:46;;;;;;;4.38;3.97;;;;;17.10;94123.00;;;;7395765;19;20137;-71
2023/09/17 00:58:21;;;;;;;3.88;3.55;;;;;17.20;94116.00;;;;7395970;19;20137;-70
2023/09/17 01:01:00;;;;;;;4.18;3.78;;;;;17.40;94109.00;;;;7396375;19;20168;-74
2023/09/17 01:03:36;;;;;;;4.13;3.72;;;;;17.50;94109.00;;;;7391787;19;20169;-71
2023/09/17 01:06:06;;;;;;;6.63;4.18;;;;;17.60;94114.00;;;;7393472;19;20585;-71
2023/09/17 01:08:41;;;;;;;7.25;3.80;;;;;17.60;94115.00;;;;7395128;19;20172;-71
2023/09/17 01:11:16;;;;;;;3.88;3.53;;;;;17.50;94106.00;;;;7395511;19;20596;-72
2023/09/17 01:13:58;;;;;;;6.25;4.47;;;;;17.50;94105.00;;;;7393987;19;20218;-74
2023/09/17 01:16:28;;;;;;;3.95;3.65;;;;;17.60;94111.00;;;;7395686;19;20494;-71
2023/09/17 01:19:04;;;;;;;4.03;3.63;;;;;17.50;94118.00;;;;7396046;19;20125;-71
2023/09/17 01:21:38;;;;;;;5.80;4.18;;;;;17.50;94112.00;;;;7392200;19;20155;-70
2023/09/17 01:24:13;;;;;;;8.15;3.72;;;;;17.30;94114.00;;;;7393555;19;20152;-70
2023/09/17 01:26:44;;;;;;;4.15;3.70;;;;;17.30;94105.00;;;;7395990;19;20144;-70
2023/09/17 01:29:23;;;;;;;5.18;3.35;;;;;17.20;94113.00;;;;7396195;19;20437;-71
2023/09/17 01:31:57;;;;;;;3.80;3.50;;;;;17.30;94108.00;;;;7391399;19;20139;-73
2023/09/17 01:34:44;;;;;;;4.55;3.30;;;;;17.60;94108.00;;;;7395734;19;20169;-71
2023/09/17 01:37:23;;;;;;;3.90;3.60;;;;;17.80;94109.00;;;;7395353;19;20550;-69
2023/09/17 01:40:05;;;;;;;4.13;3.55;;;;;17.70;94108.00;;;;7392544;19;20146;-70
2023/09/17 01:42:34;;;;;;;5.25;3.63;;;;;17.70;94111.00;;;;7393384;19;20171;-71
2023/09/17 01:45:14;;;;;;;3.53;3.22;;;;;17.80;94107.00;;;;7394662;19;20148;-72
2023/09/17 01:47:49;;;;;;;3.38;3.08;;;;;17.90;94111.00;;;;7397278;19;20124;-70
2023/09/17 01:50:24;;;;;;;3.45;3.00;;;;;17.80;94114.00;;;;7392855;19;20845;-72
2023/09/17 01:52:53;;;;;;;4.18;3.75;;;;;17.70;94115.00;;;;7394359;19;20152;-71
2023/09/17 01:55:22;;;;;;;3.55;3.25;;;;;17.40;94109.00;;;;7392503;19;20136;-72
2023/09/17 01:57:57;;;;;;;3.85;3.50;;;;;17.50;94116.00;;;;7394189;19;20210;-72
2023/09/17 02:00:25;;;;;;;3.92;3.45;;;;;17.30;94116.00;;;;7393137;19;20167;-73
2023/09/17 02:02:59;;;;;;;3.80;3.05;;;;;17.30;94113.00;;;;7392850;19;20180;-71
2023/09/17 02:05:27;;;;;;;3.75;3.35;;;;;17.30;94111.00;;;;7393878;19;20148;-72
2023/09/17 02:08:02;;;;;;;3.40;3.10;;;;;17.40;94109.00;;;;7395374;19;20147;-70
2023/09/17 02:10:37;;;;;;;3.47;3.17;;;;;17.40;94112.00;;;;7392739;19;20144;-71
2023/09/17 02:13:12;;;;;;;3.47;3.05;;;;;17.30;94113.00;;;;7392816;19;20152;-71
2023/09/17 02:15:40;;;;;;;4.18;3.22;;;;;17.20;94114.00;;;;7393438;19;20140;-71
2023/09/17 02:18:15;;;;;;;3.85;2.97;;;;;17.10;94113.00;;;;7392374;19;20594;-75
2023/09/17 02:20:44;;;;;;;3.42;2.90;;;;;17.00;94116.00;;;;7393501;19;20133;-72
2023/09/17 02:23:18;;;;;;;3.67;3.30;;;;;17.00;94110.00;;;;7392984;19;20591;-69
2023/09/17 02:25:46;;;;;;;3.25;2.90;;;;;17.00;94116.00;;;;7392436;19;20141;-72
2023/09/17 02:28:14;;;;;;;3.28;2.42;;;;;16.90;94115.00;;;;7393707;19;20195;-73
2023/09/17 02:30:48;;;;;;;3.20;2.90;;;;;16.90;94117.00;;;;7390650;19;20204;-70
2023/09/17 02:33:23;;;;;;;3.28;2.80;;;;;17.10;94126.00;;;;7391780;19;20184;-72
2023/09/17 02:35:58;;;;;;;6.63;2.90;;;;;16.80;94131.00;;;;7401922;19;20591;-72
2023/09/17 02:38:32;;;;;;;4.30;3.10;;;;;16.60;94128.00;;;;7400156;19;20140;-71
2023/09/17 02:41:07;;;;;;;6.03;3.40;;;;;16.40;94135.00;;;;7401001;19;20592;-72
2023/09/17 02:43:42;;;;;;;4.40;3.08;;;;;16.40;94137.00;;;;7395920;19;20494;-75
2023/09/17 02:46:11;;;;;;;3.20;2.80;;;;;16.30;94134.00;;;;7400496;19;20137;-71
2023/09/17 02:48:47;;;;;;;4.45;3.40;;;;;16.30;94139.00;;;;7398536;19;20144;-74
2023/09/17 02:51:16;;;;;;;3.25;2.75;;;;;16.40;94137.00;;;;7399137;19;20157;-74
2023/09/17 02:53:51;;;;;;;6.00;2.92;;;;;16.50;94130.00;;;;7401621;19;20537;-74
2023/09/17 02:56:20;;;;;;;3.05;2.65;;;;;16.80;94127.00;;;;7399824;19;20149;-74
2023/09/17 02:58:55;;;;;;;6.13;2.70;;;;;16.90;94131.00;;;;7398348;19;20165;-74
2023/09/17 03:01:30;;;;;;;4.65;2.88;;;;;17.20;94117.00;;;;7397006;19;20172;-76
2023/09/17 03:04:05;;;;;;;5.75;3.22;;;;;17.30;94123.00;;;;7391819;19;20196;-76
2023/09/17 03:06:40;;;;;;;5.68;3.15;;;;;17.30;94119.00;;;;7398795;19;20184;-74
2023/09/17 03:09:14;;;;;;;4.97;2.95;;;;;17.40;94123.00;;;;7400673;19;20140;-75
2023/09/17 03:11:48;;;;;;;3.17;2.88;;;;;17.50;94124.00;;;;7401001;19;20121;-74
2023/09/17 03:14:23;;;;;;;4.28;3.00;;;;;17.50;94121.00;;;;7397488;19;20237;-76
2023/09/17 03:16:59;;;;;;;3.88;2.55;;;;;17.50;94126.00;;;;7399727;19;20146;-74
2023/09/17 03:19:27;;;;;;;3.85;2.60;;;;;17.50;94122.00;;;;7400601;19;20129;-74
2023/09/17 03:22:02;;;;;;;3.28;2.50;;;;;17.60;94128.00;;;;7398938;19;20145;-74
2023/09/17 03:24:30;;;;;;;5.30;2.70;;;;;17.50;94120.00;;;;7399023;19;20137;-74
2023/09/17 03:27:11;;;;;;;3.38;2.72;;;;;17.30;94117.00;;;;7400720;19;20144;-75
2023/09/17 03:29:48;;;;;;;6.35;2.78;;;;;17.30;94117.00;;;;7399230;19;20128;-75
2023/09/17 03:32:22;;;;;;;2.90;2.60;;;;;17.40;94120.00;;;;7394656;19;20150;-76
2023/09/17 03:35:03;;;;;;;3.08;2.30;;;;;17.40;94114.00;;;;7397636;19;20171;-73
2023/09/17 03:37:38;;;;;;;7.78;2.80;;;;;17.40;94116.00;;;;7396612;19;20235;-75
2023/09/17 03:40:10;;;;;;;3.25;2.13;;;;;17.50;94119.00;;;;7397784;19;20142;-75
2023/09/17 03:42:47;;;;;;;3.60;2.50;;;;;17.60;94116.00;;;;7399479;19;20180;-75
2023/09/17 03:45:22;;;;;;;4.60;2.30;;;;;17.60;94112.00;;;;7394706;19;20157;-74
2023/09/17 03:47:57;;;;;;;4.35;2.30;;;;;17.40;94117.00;;;;7397080;19;20128;-74
2023/09/17 03:50:39;;;;;;;5.55;2.72;;;;;17.30;94106.00;;;;7400633;19;20207;-74
2023/09/17 03:53:13;;;;;;;4.55;2.35;;;;;17.20;94107.00;;;;7398160;19;20498;-75
2023/09/17 03:55:41;;;;;;;4.97;2.65;;;;;17.40;94112.00;;;;7395792;19;20149;-75
2023/09/17 03:58:16;;;;;;;7.72;3.20;;;;;17.50;94114.00;;;;7398812;19;20132;-76
2023/09/17 04:00:44;;;;;;;5.47;2.78;;;;;17.50;94120.00;;;;7398178;19;20129;-74
2023/09/17 04:03:18;;;;;;;5.15;2.70;;;;;17.50;94108.00;;;;7397191;19;20145;-75
2023/09/17 04:05:53;;;;;;;7.03;2.65;;;;;17.50;94113.00;;;;7397846;19;20579;-76
2023/09/17 04:08:21;;;;;;;4.10;2.75;;;;;17.60;94107.00;;;;7397974;19;20137;-74
2023/09/17 04:10:56;;;;;;;6.72;2.80;;;;;17.60;94106.00;;;;7398299;19;20145;-76
2023/09/17 04:13:29;;;;;;;7.30;3.13;;;;;17.50;94105.00;;;;7396570;19;20596;-75
2023/09/17 04:16:04;;;;;;;7.38;3.35;;;;;17.20;94109.00;;;;7398520;19;20156;-76
2023/09/17 04:18:32;;;;;;;4.28;2.40;;;;;17.20;94108.00;;;;7396806;19;20612;-78
2023/09/17 04:21:07;;;;;;;4.95;2.65;;;;;17.20;94115.00;;;;7398638;19;20128;-75
2023/09/17 04:23:42;;;;;;;4.97;2.70;;;;;17.30;94108.00;;;;7394566;19;20136;-76
2023/09/17 04:26:17;;;;;;;6.70;3.30;;;;;17.20;94106.00;;;;7396564;19;20152;-74
2023/09/17 04:28:52;;;;;;;4.93;2.70;;;;;17.10;94110.00;;;;7397848;19;20136;-76
2023/09/17 04:31:20;;;;;;;6.55;2.72;;;;;16.90;94117.00;;;;7392214;19;20121;-75
2023/09/17 04:34:01;;;;;;;3.88;2.90;;;;;16.80;94120.00;;;;7394010;19;20175;-75
2023/09/17 04:36:36;;;;;;;8.18;2.92;;;;;16.90;94121.00;;;;7395535;19;20140;-74
2023/09/17 04:39:12;;;;;;;5.15;2.67;;;;;16.80;94123.00;;;;7394118;19;20121;-75
2023/09/17 04:41:48;;;;;;;5.40;2.78;;;;;16.80;94131.00;;;;7395802;19;20148;-74
2023/09/17 04:44:23;;;;;;;8.23;2.97;;;;;16.80;94133.00;;;;7395321;19;20121;-76
2023/09/17 04:46:57;;;;;;;5.82;3.08;;;;;17.00;94131.00;;;;7391251;19;20137;-76
2023/09/17 04:49:31;;;;;;;5.80;2.80;;;;;17.00;94129.00;;;;7393415;19;20584;-75
2023/09/17 04:52:06;;;;;;;5.22;2.92;;;;;17.00;94136.00;;;;7390757;19;20145;-75
2023/09/17 04:54:40;;;;;;;5.65;2.80;;;;;17.10;94137.00;;;;7395589;19;20144;-75
2023/09/17 04:57:15;;;;;;;5.50;2.80;;;;;17.10;94133.00;;;;7394582;19;20602;-76
2023/09/17 04:59:46;;;;;;;6.65;2.92;;;;;17.10;94141.00;;;;7396063;19;20149;-75
2023/09/17 05:02:24;;;;;;;8.57;2.90;;;;;17.10;94143.00;;;;7394070;19;20176;-74
2023/09/17 05:04:53;;;;;;;8.18;3.38;;;;;17.10;94141.00;;;;7394383;19;20133;-74
2023/09/17 05:07:27;;;;;;;5.93;2.70;;;;;17.00;94145.00;;;;7396508;19;20560;-75
2023/09/17 05:10:02;;;;;;;4.18;2.65;;;;;17.00;94151.00;;;;7392517;19;20164;-75
2023/09/17 05:12:37;;;;;;;6.53;3.33;;;;;17.10;94151.00;;;;7396468;19;20231;-75
2023/09/17 05:15:05;;;;;;;4.82;2.63;;;;;17.20;94155.00;;;;7396409;19;20249;-75
2023/09/17 05:17:43;;;;;;;6.63;3.00;;;;;17.10;94151.00;;;;7392168;19;20215;-76
2023/09/17 05:20:11;;;;;;;12.10;2.90;;;;;17.10;94164.00;;;;7393940;19;20192;-75
2023/09/17 05:22:41;;;;;;;5.53;2.78;;;;;17.20;94156.00;;;;7392006;19;20855;-75
2023/09/17 05:25:15;;;;;;;5.18;2.88;;;;;17.30;94157.00;;;;7390928;19;20124;-75
2023/09/17 05:27:43;;;;;;;4.35;2.80;;;;;17.40;94164.00;;;;7393183;19;20524;-75
2023/09/17 05:30:20;;;;;;;5.53;2.42;;;;;17.50;94158.00;;;;7394759;19;20132;-75
2023/09/17 05:32:53;;;;;;;4.15;2.70;;;;;17.50;94159.00;;;;7388388;19;20152;-75
2023/09/17 05:35:28;;;;;;;6.55;3.03;;;;;17.70;94161.00;;;;7387707;19;20116;-74
2023/09/17 05:38:03;;;;;;;7.60;2.60;;;;;17.80;94160.00;;;;7394377;19;20128;-75
2023/09/17 05:40:38;;;;;;;3.92;2.78;;;;;17.80;94161.00;;;;7392391;19;20124;-74
2023/09/17 05:43:14;;;;;;;5.35;2.50;;;;;17.80;94162.00;;;;7394047;19;20478;-74
2023/09/17 05:45:59;;;;;;;6.68;3.00;;;;;17.80;94167.00;;;;7394898;19;20155;-74
2023/09/17 05:48:33;;;;;;;4.88;2.65;;;;;17.80;94165.00;;;;7391977;19;20199;-75
2023/09/17 05:51:01;;;;;;;4.88;2.53;;;;;17.90;94165.00;;;;7396591;19;20654;-75
2023/09/17 05:53:37;;;;;;;5.65;2.65;;;;;18.10;94163.00;;;;7394820;19;20133;-75
2023/09/17 05:56:07;;;;;;;5.07;2.63;;;;;18.10;94162.00;;;;7394080;19;20703;-75
2023/09/17 05:58:44;;;;;;;3.40;2.40;;;;;18.30;94159.00;;;;7394454;19;20656;-74
2023/09/17 06:01:12;;;;;;;4.60;2.75;;;;;18.40;94163.00;;;;7392917;19;20190;-75
2023/09/17 06:03:46;;;;;;;3.83;2.80;;;;;18.30;94167.00;;;;7391796;19;21266;-75
2023/09/17 06:06:22;;;;;;;3.80;2.60;;;;;18.30;94172.00;;;;7396168;19;20136;-75
2023/09/17 06:08:56;;;;;;;3.58;2.60;;;;;18.50;94164.00;;;;7391729;19;20140;-76
2023/09/17 06:11:30;;;;;;;5.22;2.67;;;;;18.50;94165.00;;;;7394724;19;20207;-74
2023/09/17 06:13:58;;;;;;;2.90;2.35;;;;;18.60;94156.00;;;;7388909;19;20156;-75
2023/09/17 06:16:32;;;;;;;5.60;2.75;;;;;18.50;94154.00;;;;7393038;19;20410;-75
2023/09/17 06:19:21;;;;;;;4.05;2.60;;;;;18.80;94155.00;;;;7394545;19;20166;-75
2023/09/17 06:21:55;;;;;;;8.18;2.58;;;;;19.00;94158.00;;;;7391654;19;20129;-77
2023/09/17 06:24:31;;;;;;;3.65;2.42;;;;;19.30;94156.00;;;;7392702;19;20189;-78
2023/09/17 06:27:05;;;;;;;5.28;2.38;;;;;19.60;94161.00;;;;7391722;19;20218;-77
2023/09/17 06:29:33;;;;;;;5.45;2.53;;;;;19.80;94158.00;;;;7391385;19;20602;-76
2023/09/17 06:32:08;;;;;;;6.82;2.85;;;;;20.00;94156.00;;;;7388988;19;20171;-76
2023/09/17 06:34:42;;;;;;;4.18;2.28;;;;;20.00;94162.00;;;;7392396;19;20145;-74
2023/09/17 06:37:28;;;;;;;4.47;2.08;;;;;20.10;94154.00;;;;7378556;19;20160;-77
2023/09/17 06:39:56;;;;;;;5.75;2.45;;;;;20.30;94157.00;;;;7379338;19;20561;-77
2023/09/17 06:42:35;;;;;;;4.47;2.58;;;;;20.50;94153.00;;;;7379005;19;21235;-75
2023/09/17 06:45:06;;;;;;;3.92;1.92;;;;;20.70;94149.00;;;;7378991;19;20161;-73
2023/09/17 06:47:40;;;;;;;3.35;2.30;;;;;21.00;94153.00;;;;7378859;19;20204;-75
2023/09/17 06:50:15;;;;;;;5.78;2.30;;;;;21.20;94156.00;;;;7379929;19;20237;-75
2023/09/17 06:52:53;;;;;;;6.00;2.38;;;;;21.20;94151.00;;;;7379364;19;20466;-76
2023/09/17 06:55:28;;;;;;;4.20;2.33;;;;;21.20;94158.00;;;;7377069;19;20179;-75
2023/09/17 06:58:03;;;;;;;5.15;2.30;;;;;21.30;94152.00;;;;7377842;19;20139;-77
2023/09/17 07:00:31;;;;;;;8.88;2.45;;;;;21.40;94145.00;;;;7375886;19;20132;-77
2023/09/17 07:03:05;;;;;;;6.82;2.30;;;;;21.50;94158.00;;;;7379004;19;20180;-72
2023/09/17 07:05:41;;;;;;;4.53;2.42;;;;;21.50;94154.00;;;;7377017;19;20229;-76
2023/09/17 07:08:15;;;;;;;5.13;2.28;;;;;21.50;94159.00;;;;7373320;19;20159;-77
2023/09/17 07:10:50;;;;;;;10.18;2.63;;;;;21.50;94162.00;;;;7376403;19;20591;-76
2023/09/17 07:13:24;;;;;;;6.38;2.38;;;;;21.60;94162.00;;;;7377458;19;20140;-76
2023/09/17 07:15:59;;;;;;;4.65;2.25;;;;;21.80;94156.00;;;;7376818;19;20428;-76
2023/09/17 07:18:34;;;;;;;4.22;2.40;;;;;21.80;94166.00;;;;7375693;19;20152;-76
2023/09/17 07:21:09;;;;;;;4.80;2.40;;;;;21.90;94176.00;;;;7382146;19;20147;-77
2023/09/17 07:23:37;;;;;;;7.68;2.78;;;;;21.90;94181.00;;;;7381821;19;20176;-74
2023/09/17 07:26:15;;;;;;;4.25;2.60;;;;;22.10;94176.00;;;;7382957;19;20129;-78
2023/09/17 07:28:50;;;;;;;3.55;2.33;;;;;22.20;94172.00;;;;7382857;19;20145;-75
2023/09/17 07:31:31;;;;;;;4.70;2.38;;;;;22.50;94171.00;;;;7382466;19;20128;-76
2023/09/17 07:34:12;;;;;;;3.47;2.40;;;;;22.70;94166.00;;;;7383267;19;20246;-73
2023/09/17 07:36:41;;;;;;;3.42;2.70;;;;;22.50;94183.00;;;;7381450;19;20721;-74
2023/09/17 07:39:15;;;;;;;3.75;2.65;;;;;22.10;94177.00;;;;7383512;19;20208;-73
2023/09/17 07:41:49;;;;;;;3.05;2.42;;;;;22.00;94171.00;;;;7383055;19;20509;-73
2023/09/17 07:44:24;;;;;;;5.53;3.03;;;;;22.40;94177.00;;;;7384560;19;20187;-75
2023/09/17 07:46:59;;;;;;;4.40;2.53;;;;;22.80;94173.00;;;;7385185;19;20152;-74
2023/09/17 07:49:36;;;;;;;5.90;2.53;;;;;23.20;94181.00;;;;7385194;19;20186;-74
2023/09/17 07:52:06;;;;;;;6.32;2.75;;;;;23.50;94184.00;;;;7381292;19;20148;-75
2023/09/17 07:54:41;;;;;;;5.18;2.25;;;;;23.80;94183.00;;;;7383150;19;20170;-74
2023/09/17 07:57:13;;;;;;;6.72;2.60;;;;;24.00;94184.00;;;;7381743;19;20151;-74
2023/09/17 07:59:52;;;;;;;8.48;2.72;;;;;24.10;94179.00;;;;7384282;19;20195;-75
2023/09/17 08:02:26;;;;;;;9.45;2.80;;;;;24.20;94185.00;;;;7380523;19;20223;-75
2023/09/17 08:05:00;;;;;;;7.95;2.60;;;;;24.30;94189.00;;;;7380963;19;20523;-76
2023/09/17 08:07:36;;;;;;;5.90;2.58;;;;;24.30;94197.00;;;;7383462;19;20953;-74
2023/09/17 08:10:04;;;;;;;6.40;2.53;;;;;24.40;94185.00;;;;7382092;19;20297;-74
2023/09/17 08:12:38;;;;;;;4.85;2.67;;;;;24.50;94193.00;;;;7384316;19;20144;-73
2023/09/17 08:15:07;;;;;;;3.50;2.40;;;;;24.30;94191.00;;;;7385514;19;20133;-73
2023/09/17 08:17:57;;;;;;;7.03;2.60;;;;;24.70;94197.00;;;;7383849;19;20963;-73
2023/09/17 08:20:27;;;;;;;10.82;2.85;;;;;24.80;94194.00;;;;7383124;19;20630;-73
2023/09/17 08:23:03;;;;;;;6.22;2.97;;;;;24.70;94195.00;;;;7383001;19;20149;-74
2023/09/17 08:25:33;;;;;;;9.20;3.10;;;;;24.70;94192.00;;;;7386361;19;20218;-73
2023/09/17 08:28:13;;;;;;;10.05;3.25;;;;;25.00;94172.00;;;;7382896;19;20128;-75
2023/09/17 08:30:41;;;;;;;9.85;3.30;;;;;24.90;94185.00;;;;7379252;19;20176;-74
2023/09/17 08:33:15;;;;;;;7.45;3.30;;;;;25.00;94188.00;;;;7384205;19;20152;-75
2023/09/17 08:35:56;;;;;;;9.13;3.40;;;;;25.20;94184.00;;;;7385243;19;20132;-74
2023/09/17 08:38:32;;;;;;;10.25;3.45;;;;;25.40;94186.00;;;;7380952;19;20148;-74
2023/09/17 08:41:01;;;;;;;12.13;3.10;;;;;25.40;94180.00;;;;7383181;19;20476;-78
2023/09/17 08:43:31;;;;;;;13.13;3.45;;;;;25.40;94181.00;;;;7383939;19;20148;-78
2023/09/17 08:46:06;;;;;;;6.10;3.03;;;;;25.70;94189.00;;;;7381658;19;20515;-76
2023/09/17 08:48:43;;;;;;;11.32;3.05;;;;;25.70;94186.00;;;;7381895;19;20163;-76
2023/09/17 08:51:19;;;;;;;9.65;3.33;;;;;25.70;94187.00;;;;7383219;19;20151;-74
2023/09/17 08:54:05;;;;;;;10.00;2.85;;;;;25.50;94185.00;;;;7377818;19;20144;-77
2023/09/17 08:56:44;;;;;;;8.07;2.78;;;;;25.60;94194.00;;;;7382094;19;20164;-76
2023/09/17 08:59:32;;;;;;;7.43;2.83;;;;;25.60;94192.00;;;;7382561;19;20607;-77
2023/09/17 09:02:20;;;;;;;6.65;3.10;;;;;25.60;94196.00;;;;7382476;19;20188;-77
2023/09/17 09:04:56;;;;;;;9.55;3.45;;;;;25.40;94185.00;;;;7385881;19;21073;-79
2023/09/17 09:07:33;;;;;;;4.78;2.42;;;;;25.50;94189.00;;;;7383421;19;20132;-78
2023/09/17 09:10:09;;;;;;;8.65;2.80;;;;;25.60;94188.00;;;;7382671;19;20160;-78
2023/09/17 09:12:47;;;;;;;9.52;3.00;;;;;25.60;94188.00;;;;7385454;19;20179;-80
2023/09/17 09:15:23;;;;;;;12.15;3.10;;;;;25.50;94202.00;;;;7385740;19;20156;-79
2023/09/17 09:17:58;;;;;;;5.78;2.40;;;;;25.20;94184.00;;;;7381802;19;20177;-74
2023/09/17 09:20:28;;;;;;;10.95;2.90;;;;;25.60;94204.00;;;;7384405;19;20242;-76
2023/09/17 09:23:05;;;;;;;8.27;2.63;;;;;25.60;94188.00;;;;7383232;19;20931;-79
2023/09/17 09:25:40;;;;;;;8.30;2.80;;;;;25.90;94188.00;;;;7384377;19;20158;-78
2023/09/17 09:28:15;;;;;;;4.30;2.90;;;;;26.10;94189.00;;;;7383806;19;20192;-77
2023/09/17 09:30:43;;;;;;;6.13;3.10;;;;;26.30;94188.00;;;;7379395;19;20129;-76
2023/09/17 09:33:26;;;;;;;6.88;2.97;;;;;26.40;94182.00;;;;7379451;19;20701;-77
2023/09/17 09:36:02;;;;;;;9.65;3.03;;;;;27.00;94181.00;;;;7381166;19;20140;-77
2023/09/17 09:38:37;;;;;;;6.22;2.90;;;;;27.30;94184.00;;;;7381663;19;20133;-76
2023/09/17 09:41:04;;;;;;;7.18;2.90;;;;;27.40;94180.00;;;;7379279;19;20548;-77
2023/09/17 09:43:43;;;;;;;5.75;2.60;;;;;27.70;94181.00;;;;7378287;19;20618;-75
2023/09/17 09:46:19;;;;;;;8.57;3.05;;;;;27.40;94179.00;;;;7380791;19;20208;-78
2023/09/17 09:49:01;;;;;;;9.38;2.83;;;;;27.50;94180.00;;;;7378737;19;20200;-76
2023/09/17 09:51:36;;;;;;;8.20;2.65;;;;;27.90;94158.00;;;;7381881;19;20144;-74
2023/09/17 09:54:12;;;;;;;6.53;2.83;;;;;28.10;94162.00;;;;7382183;19;20147;-74
2023/09/17 09:56:40;;;;;;;6.47;2.80;;;;;28.10;94151.00;;;;7383339;19;20161;-74
2023/09/17 09:59:16;;;;;;;10.05;3.00;;;;;28.30;94159.00;;;;7381803;19;20140;-74
2023/09/17 10:01:45;;;;;;;5.78;2.42;;;;;28.30;94158.00;;;;7379846;19;20208;-75
2023/09/17 10:04:14;;;;;;;9.45;2.78;;;;;28.60;94149.00;;;;7381729;19;20129;-76
2023/09/17 10:06:50;;;;;;;9.20;3.10;;;;;28.70;94157.00;;;;7381247;19;20160;-77
2023/09/17 10:09:25;;;;;;;10.57;2.80;;;;;28.80;94149.00;;;;7382353;19;20159;-77
2023/09/17 10:11:54;;;;;;;6.93;2.45;;;;;28.50;94144.00;;;;7380384;19;20691;-75
2023/09/17 10:14:30;;;;;;;8.30;2.88;;;;;28.50;94145.00;;;;7378060;19;20211;-75
2023/09/17 10:17:01;;;;;;;9.68;2.70;;;;;28.80;94143.00;;;;7380542;19;20513;-75
2023/09/17 10:19:36;;;;;;;5.35;2.60;;;;;29.10;94148.00;;;;7380261;19;20648;-75
2023/09/17 10:22:08;;;;;;;6.35;2.80;;;;;29.20;94146.00;;;;7378460;19;20591;-74
2023/09/17 10:24:43;;;;;;;6.18;2.90;;;;;29.10;94149.00;;;;7380283;19;20156;-73
2023/09/17 10:27:15;;;;;;;10.35;2.90;;;;;29.10;94150.00;;;;7381729;19;20125;-74
2023/09/17 10:29:50;;;;;;;6.07;2.60;;;;;28.80;94153.00;;;;7379282;19;20484;-72
2023/09/17 10:32:19;;;;;;;7.65;2.70;;;;;28.80;94143.00;;;;7377187;19;20149;-75
2023/09/17 10:35:01;;;;;;;7.88;2.75;;;;;28.80;94145.00;;;;7382030;19;20236;-73
2023/09/17 10:37:31;;;;;;;7.57;2.60;;;;;28.80;94140.00;;;;7380924;19;20153;-76
2023/09/17 10:40:09;;;;;;;12.65;2.65;;;;;28.90;94152.00;;;;7379593;19;20788;-74
2023/09/17 10:42:44;;;;;;;7.05;2.50;;;;;29.00;94137.00;;;;7381595;19;20153;-76
2023/09/17 10:45:13;;;;;;;8.05;2.38;;;;;28.60;94152.00;;;;7378694;19;20148;-74
2023/09/17 10:47:50;;;;;;;7.63;2.47;;;;;28.70;94154.00;;;;7381070;19;20155;-77
2023/09/17 10:50:19;;;;;;;7.25;2.47;;;;;28.70;94139.00;;;;7380901;19;20525;-77
2023/09/17 10:52:54;;;;;;;7.45;2.75;;;;;29.20;94134.00;;;;7381231;19;20148;-74
2023/09/17 10:55:24;;;;;;;7.00;2.45;;;;;29.50;94146.00;;;;7383596;19;20177;-76
2023/09/17 10:58:07;;;;;;;13.90;3.63;;;;;29.30;94138.00;;;;7387121;19;20194;-76
2023/09/17 11:00:37;;;;;;;5.93;2.80;;;;;29.00;94129.00;;;;7387911;19;20124;-75
2023/09/17 11:03:19;;;;;;;8.27;2.72;;;;;28.50;94150.00;;;;7389555;19;20180;-74
2023/09/17 11:05:56;;;;;;;7.18;2.80;;;;;28.20;94135.00;;;;7395488;19;20154;-77
2023/09/17 11:08:33;;;;;;;9.07;2.88;;;;;28.20;94140.00;;;;7389374;19;20507;-74
2023/09/17 11:11:11;;;;;;;6.07;2.53;;;;;28.70;94135.00;;;;7389979;19;20140;-75
2023/09/17 11:13:40;;;;;;;8.20;2.60;;;;;28.90;94135.00;;;;7386867;19;20145;-75
2023/09/17 11:16:15;;;;;;;12.82;2.33;;;;;29.30;94152.00;;;;7386938;19;20503;-76
2023/09/17 11:19:10;;;;;;;4.45;2.10;;;;;28.50;94152.00;;;;7387804;19;20147;-76
2023/09/17 11:22:07;;;;;;;10.32;2.35;;;;;28.20;94155.00;;;;7387906;19;20666;-74
2023/09/17 11:24:45;;;;;;;9.15;2.55;;;;;28.40;94153.00;;;;7390565;19;20170;-75
2023/09/17 11:27:12;;;;;;;6.78;2.53;;;;;28.60;94141.00;;;;7386854;19;20216;-74
2023/09/17 11:29:48;;;;;;;7.80;2.17;;;;;29.40;94137.00;;;;7386989;19;20163;-76
2023/09/17 11:32:23;;;;;;;6.65;2.30;;;;;30.00;94129.00;;;;7386494;19;20184;-75
2023/09/17 11:35:11;;;;;;;8.93;2.38;;;;;30.00;94138.00;;;;7386621;19;21620;-79
2023/09/17 11:37:45;;;;;;;6.18;2.28;;;;;29.50;94146.00;;;;7387648;19;20152;-76
2023/09/17 11:40:20;;;;;;;8.35;2.20;;;;;29.30;94153.00;;;;7387750;19;20607;-76
2023/09/17 11:42:50;;;;;;;8.90;2.30;;;;;28.70;94152.00;;;;7387149;19;20149;-76
2023/09/17 11:45:25;;;;;;;5.72;2.13;;;;;28.40;94147.00;;;;7389791;19;20163;-76
2023/09/17 11:48:04;;;;;;;6.43;2.25;;;;;28.80;94135.00;;;;7386704;19;20133;-77
2023/09/17 11:50:38;;;;;;;8.10;2.42;;;;;29.10;94082.00;;;;7382024;19;20144;-76
2023/09/17 11:53:14;;;;;;;10.02;2.10;;;;;29.30;94133.00;;;;7384898;19;20161;-75
2023/09/17 11:55:51;;;;;;;4.55;1.80;;;;;29.80;94124.00;;;;7385775;19;20168;-76
2023/09/17 11:58:20;;;;;;;5.07;2.13;;;;;30.00;94127.00;;;;7384928;19;20545;-76
2023/09/17 12:00:55;;;;;;;5.10;1.83;;;;;30.10;94119.00;;;;7385258;19;20136;-77
2023/09/17 12:03:29;;;;;;;5.85;2.20;;;;;29.70;94122.00;;;;7386618;19;20124;-76
2023/09/17 12:06:04;;;;;;;8.65;2.00;;;;;29.90;94122.00;;;;7384106;19;20656;-76
2023/09/17 12:08:33;;;;;;;2.05;1.70;;;;;29.60;94124.00;;;;7389120;19;22833;-79
2023/09/17 12:11:21;;;;;;;5.88;1.98;;;;;29.10;94114.00;;;;7386345;19;20195;-73
2023/09/17 12:13:58;;;;;;;6.82;2.10;;;;;29.30;94119.00;;;;7385095;19;20156;-75
2023/09/17 12:16:33;;;;;;;8.77;2.33;;;;;29.90;94120.00;;;;7384814;19;20144;-75
2023/09/17 12:19:10;;;;;;;7.63;2.08;;;;;29.20;94126.00;;;;7386763;19;20151;-75
2023/09/17 12:21:50;;;;;;;7.68;2.35;;;;;28.50;94133.00;;;;7387322;19;20132;-73
2023/09/17 12:24:44;;;;;;;5.60;2.00;;;;;28.30;94131.00;;;;7384504;19;20176;-77
2023/09/17 12:27:29;;;;;;;4.00;2.40;;;;;27.80;94132.00;;;;7384885;19;20152;-74
2023/09/17 12:30:08;;;;;;;6.60;2.10;;;;;27.90;94134.00;;;;7385665;19;20142;-77
2023/09/17 12:32:42;;;;;;;6.18;2.05;;;;;28.40;94124.00;;;;7381714;19;20148;-75
2023/09/17 12:35:23;;;;;;;5.07;1.70;;;;;28.40;94110.00;;;;7384925;19;20520;-73
2023/09/17 12:37:59;;;;;;;4.03;1.80;;;;;29.10;94101.00;;;;7384194;19;20635;-77
2023/09/17 12:40:34;;;;;;;5.18;2.28;;;;;30.10;94086.00;;;;7386621;19;20604;-75
2023/09/17 12:43:08;;;;;;;7.55;2.42;;;;;30.80;94096.00;;;;7384650;19;20487;-74
2023/09/17 12:45:43;;;;;;;4.90;2.28;;;;;30.00;94105.00;;;;7383822;19;20157;-74
2023/09/17 12:48:11;;;;;;;3.28;2.30;;;;;29.60;94111.00;;;;7385386;19;20181;-77
2023/09/17 12:50:45;;;;;;;3.13;2.25;;;;;29.40;94110.00;;;;7386527;19;20499;-74
2023/09/17 12:53:20;;;;;;;5.80;1.83;;;;;29.80;94096.00;;;;7384812;19;20522;-75